ES-0232 weather

Aeródromo del Jarde
Antigua, Canary Islands, Spain

Public forecast

Using degrees Celsius for public forecast. Weather courtesy of forecast.io.

METAR (pilot weather report)

Closest report is Fuerteventura Airport, 7.3 nm (13.5 km) ENE. Retrieved 2019/05/26 10:30 UTC (0 seconds ago):

GCFV 261030Z 35013KT 320V040 9999 FEW020 24/14 Q1015

TAF (pilot weather forecast)

Closest forecast is Fuerteventura Airport, 7.3 nm (13.5 km) ENE. Retrieved 2019/05/26 09:27 UTC (1 hour ago):

TAF TAF GCFV 260800Z 2609/2709 35012KT 9999 FEW020 TX26/2614Z TN19/2706Z BECMG 2610/2612 05014KT BECMG 2617/2619 35013KT